createdAt,value
2023-04-12T00:00:28.840Z,18.50
2023-04-12T00:02:59.447Z,18.20
2023-04-12T00:05:28.405Z,17.90
2023-04-12T00:07:56.753Z,18.10
2023-04-12T00:10:26.560Z,18.50
2023-04-12T00:12:54.806Z,18.20
2023-04-12T00:15:23.017Z,18.20
2023-04-12T00:17:51.342Z,18.70
2023-04-12T00:20:19.661Z,18.80
2023-04-12T00:22:48.221Z,19.10
2023-04-12T00:25:17.001Z,19.40
2023-04-12T00:27:46.563Z,19.10
2023-04-12T00:30:15.701Z,19.30
2023-04-12T00:32:44.326Z,18.60
2023-04-12T00:35:12.671Z,18.50
2023-04-12T00:37:41.173Z,18.40
2023-04-12T00:40:11.333Z,18.60
2023-04-12T00:42:39.635Z,18.90
2023-04-12T00:45:10.427Z,18.80
2023-04-12T00:47:39.213Z,18.00
2023-04-12T00:50:09.279Z,17.90
2023-04-12T00:52:37.773Z,17.80
2023-04-12T00:55:07.716Z,17.50
2023-04-12T00:57:37.610Z,18.60
2023-04-12T01:00:08.839Z,18.60
2023-04-12T01:02:39.812Z,18.70
2023-04-12T01:05:14.553Z,18.60
2023-04-12T01:07:51.551Z,19.00
2023-04-12T01:10:29.110Z,18.60
2023-04-12T01:13:09.648Z,18.80
2023-04-12T01:15:42.403Z,18.80
2023-04-12T01:18:17.683Z,18.90
2023-04-12T01:20:54.698Z,18.20
2023-04-12T01:23:44.803Z,18.40
2023-04-12T01:26:34.247Z,19.10
2023-04-12T01:29:10.011Z,18.40
2023-04-12T01:31:41.427Z,18.50
2023-04-12T01:34:13.184Z,18.20
2023-04-12T01:36:43.739Z,18.20
2023-04-12T01:39:12.228Z,18.10
2023-04-12T01:41:45.227Z,18.30
2023-04-12T01:44:16.282Z,18.10
2023-04-12T01:46:46.730Z,17.40
2023-04-12T01:49:16.716Z,16.90
2023-04-12T01:51:52.398Z,16.40
2023-04-12T01:54:24.006Z,16.20
2023-04-12T01:56:58.781Z,15.70
2023-04-12T01:59:33.215Z,15.90
2023-04-12T02:02:02.217Z,16.10
2023-04-12T02:04:31.507Z,16.40
2023-04-12T02:06:59.911Z,16.40
2023-04-12T02:09:28.201Z,16.00
2023-04-12T02:11:56.616Z,16.20
2023-04-12T02:14:24.850Z,16.50
2023-04-12T02:16:55.791Z,16.30
2023-04-12T02:19:24.672Z,16.10
2023-04-12T02:21:53.929Z,16.10
2023-04-12T02:24:23.583Z,15.70
2023-04-12T02:26:55.087Z,15.90
2023-04-12T02:29:23.880Z,16.30
2023-04-12T02:31:54.053Z,16.70
2023-04-12T02:34:24.734Z,16.80
2023-04-12T02:37:00.701Z,17.30
2023-04-12T02:39:29.220Z,17.10
2023-04-12T02:41:57.913Z,17.50
2023-04-12T02:44:26.179Z,17.00
2023-04-12T02:47:12.081Z,16.50
2023-04-12T02:49:42.180Z,16.40
2023-04-12T02:52:12.699Z,16.40
2023-04-12T02:54:52.269Z,16.80
2023-04-12T02:57:21.680Z,16.90
2023-04-12T02:59:52.991Z,17.30
2023-04-12T03:02:29.209Z,17.50
2023-04-12T03:05:03.521Z,18.40
2023-04-12T03:07:40.112Z,18.50
2023-04-12T03:10:11.378Z,18.40
2023-04-12T03:12:44.138Z,18.30
2023-04-12T03:15:17.742Z,17.70
2023-04-12T03:17:51.408Z,17.60
2023-04-12T03:20:24.442Z,17.30
2023-04-12T03:23:01.514Z,17.10
2023-04-12T03:25:31.197Z,17.60
2023-04-12T03:28:08.248Z,17.90
2023-04-12T03:30:49.621Z,19.20
2023-04-12T03:33:21.852Z,19.40
2023-04-12T03:35:51.731Z,19.60
2023-04-12T03:38:20.321Z,19.50
2023-04-12T03:40:48.902Z,19.70
2023-04-12T03:43:22.342Z,19.70
2023-04-12T03:45:50.990Z,19.00
2023-04-12T03:48:19.285Z,19.40
2023-04-12T03:50:48.870Z,18.90
2023-04-12T03:53:22.709Z,18.60
2023-04-12T03:55:52.384Z,17.90
2023-04-12T03:58:21.545Z,18.00
2023-04-12T04:00:49.960Z,17.90
2023-04-12T04:03:19.120Z,18.10
2023-04-12T04:05:57.709Z,18.80
2023-04-12T04:08:27.435Z,19.10
2023-04-12T04:10:58.187Z,19.10
2023-04-12T04:13:31.671Z,19.00
2023-04-12T04:16:05.430Z,18.80
2023-04-12T04:18:35.858Z,18.60
2023-04-12T04:21:07.385Z,17.90
2023-04-12T04:23:38.797Z,17.70
2023-04-12T04:26:10.052Z,17.60
2023-04-12T04:28:44.900Z,17.80
2023-04-12T04:31:17.662Z,17.60
2023-04-12T04:33:50.781Z,18.10
2023-04-12T04:36:22.498Z,18.30
2023-04-12T04:38:55.005Z,17.90
2023-04-12T04:41:43.155Z,17.40
2023-04-12T04:44:19.414Z,17.40
2023-04-12T04:46:56.627Z,17.50
2023-04-12T04:49:24.932Z,17.60
2023-04-12T04:51:55.388Z,18.20
2023-04-12T04:54:24.021Z,18.30
2023-04-12T04:56:52.748Z,18.70
2023-04-12T04:59:25.153Z,18.60
2023-04-12T05:01:58.170Z,18.50
2023-04-12T05:04:26.612Z,18.50
2023-04-12T05:06:56.874Z,18.60
2023-04-12T05:09:27.463Z,19.00
2023-04-12T05:11:57.989Z,19.50
2023-04-12T05:14:41.334Z,19.50
2023-04-12T05:17:14.447Z,19.80
2023-04-12T05:19:44.807Z,19.60
2023-04-12T05:22:14.594Z,20.00
2023-04-12T05:24:44.870Z,19.80
2023-04-12T05:27:13.186Z,19.80
2023-04-12T05:29:41.542Z,19.20
2023-04-12T05:32:10.484Z,19.20
2023-04-12T05:34:39.583Z,18.80
2023-04-12T05:37:08.299Z,18.90
2023-04-12T05:39:40.993Z,18.30
2023-04-12T05:42:13.536Z,18.20
2023-04-12T05:44:41.858Z,17.90
2023-04-12T05:47:13.765Z,17.60
2023-04-12T05:49:42.176Z,17.60
2023-04-12T05:52:14.076Z,17.80
2023-04-12T05:54:43.716Z,17.60
2023-04-12T05:57:17.626Z,17.50
2023-04-12T05:59:48.630Z,18.00
2023-04-12T06:02:17.052Z,18.40
2023-04-12T06:04:50.881Z,18.60
2023-04-12T06:07:21.600Z,18.90
2023-04-12T06:09:51.515Z,18.40
2023-04-12T06:12:21.143Z,17.90
2023-04-12T06:14:49.368Z,17.80
2023-04-12T06:17:18.206Z,17.70
2023-04-12T06:19:46.508Z,17.60
2023-04-12T06:22:17.801Z,17.20
2023-04-12T06:24:46.084Z,17.30
2023-04-12T06:27:15.754Z,17.10
2023-04-12T06:29:44.147Z,16.70
2023-04-12T06:32:12.510Z,16.80
2023-04-12T06:34:41.491Z,16.90
2023-04-12T06:37:15.890Z,16.70
2023-04-12T06:39:44.127Z,17.00
2023-04-12T06:42:14.513Z,17.50
2023-04-12T06:44:44.586Z,17.60
2023-04-12T06:47:15.993Z,17.50
2023-04-12T06:49:44.340Z,16.90
2023-04-12T06:52:15.253Z,17.30
2023-04-12T06:54:44.048Z,17.30
2023-04-12T06:57:12.492Z,17.40
2023-04-12T06:59:41.158Z,17.20
2023-04-12T07:02:11.032Z,17.00
2023-04-12T07:04:39.298Z,17.20
2023-04-12T07:07:08.007Z,17.40
2023-04-12T07:09:36.230Z,17.00
2023-04-12T07:12:04.574Z,16.90
2023-04-12T07:14:32.825Z,17.40
2023-04-12T07:17:01.028Z,17.30
2023-04-12T07:19:31.409Z,17.30
2023-04-12T07:22:00.201Z,17.20
2023-04-12T07:24:28.447Z,17.40
2023-04-12T07:26:57.019Z,17.80
2023-04-12T07:29:25.233Z,17.70
2023-04-12T07:31:53.465Z,17.60
2023-04-12T07:34:21.881Z,17.50
2023-04-12T07:36:51.776Z,17.60
2023-04-12T07:39:20.001Z,17.40
2023-04-12T07:41:49.016Z,17.60
2023-04-12T07:44:17.290Z,17.40
2023-04-12T07:46:46.179Z,17.20
2023-04-12T07:49:14.637Z,17.20
2023-04-12T07:51:43.605Z,17.10
2023-04-12T07:54:13.268Z,16.70
2023-04-12T07:56:41.655Z,16.90
2023-04-12T07:59:09.917Z,16.60
2023-04-12T08:01:38.160Z,16.50
2023-04-12T08:04:07.118Z,16.80
2023-04-12T08:06:35.522Z,16.40
2023-04-12T08:09:03.837Z,16.20
2023-04-12T08:11:36.228Z,16.00
2023-04-12T08:14:04.538Z,17.00
2023-04-12T08:16:34.844Z,16.70
2023-04-12T08:19:04.389Z,17.30
2023-04-12T08:21:33.632Z,17.60
2023-04-12T08:24:01.860Z,18.10
2023-04-12T08:26:30.124Z,18.30
2023-04-12T08:28:59.688Z,18.70
2023-04-12T08:31:27.953Z,19.40
2023-04-12T08:33:56.607Z,20.10
2023-04-12T08:36:25.028Z,20.00
2023-04-12T08:38:55.665Z,20.50
2023-04-12T08:41:23.973Z,19.80
2023-04-12T08:43:53.447Z,19.80
2023-04-12T08:46:23.533Z,19.80
2023-04-12T08:48:55.074Z,20.20
2023-04-12T08:51:23.759Z,20.30
2023-04-12T08:53:53.958Z,20.00
2023-04-12T08:56:24.184Z,20.10
2023-04-12T08:58:56.582Z,21.60
2023-04-12T09:01:26.648Z,21.40
2023-04-12T09:03:55.141Z,21.40
2023-04-12T09:06:23.730Z,21.70
2023-04-12T09:08:56.322Z,21.30
2023-04-12T09:11:25.985Z,20.70
2023-04-12T09:13:56.134Z,20.40
2023-04-12T09:16:40.410Z,20.40
2023-04-12T09:19:09.490Z,20.30
2023-04-12T09:21:38.713Z,20.60
2023-04-12T09:24:13.934Z,21.30
2023-04-12T09:26:42.940Z,21.20
2023-04-12T09:29:25.122Z,20.90
2023-04-12T09:32:02.088Z,21.60
2023-04-12T09:34:31.229Z,21.40
2023-04-12T09:37:00.028Z,22.20
2023-04-12T09:39:33.187Z,22.10
2023-04-12T09:42:17.900Z,22.40
2023-04-12T09:44:46.772Z,21.70
2023-04-12T09:47:16.565Z,20.90
2023-04-12T09:49:46.251Z,20.60
2023-04-12T09:52:15.495Z,21.00
2023-04-12T09:54:45.615Z,20.80
2023-04-12T09:57:18.185Z,21.00
2023-04-12T09:59:51.181Z,21.00
2023-04-12T10:02:27.662Z,21.20
2023-04-12T10:04:56.326Z,21.30
2023-04-12T10:07:25.490Z,20.90
2023-04-12T10:09:54.297Z,21.10
2023-04-12T10:12:23.123Z,20.80
2023-04-12T10:14:53.719Z,20.60
2023-04-12T10:17:25.545Z,20.70
2023-04-12T10:19:54.055Z,20.80
2023-04-12T10:22:23.912Z,21.10
2023-04-12T10:24:54.199Z,21.00
2023-04-12T10:27:27.094Z,21.50
2023-04-12T10:29:55.921Z,21.30
2023-04-12T10:32:26.726Z,20.90
2023-04-12T10:35:00.933Z,21.10
2023-04-12T10:38:00.091Z,21.20
2023-04-12T10:40:29.058Z,21.40
2023-04-12T10:43:30.157Z,21.40
2023-04-12T10:46:04.119Z,21.90
2023-04-12T10:48:35.364Z,21.50
2023-04-12T10:51:23.436Z,22.00
2023-04-12T10:53:53.710Z,21.80
2023-04-12T10:56:39.650Z,22.40
2023-04-12T10:59:09.850Z,23.20
2023-04-12T11:02:19.171Z,22.80
2023-04-12T11:05:11.197Z,22.30
2023-04-12T11:08:15.950Z,22.30
2023-04-12T11:11:04.076Z,22.30
2023-04-12T11:13:37.660Z,22.10
2023-04-12T11:16:07.717Z,22.30
2023-04-12T11:18:36.617Z,23.00
2023-04-12T11:21:07.730Z,22.50
2023-04-12T11:23:36.934Z,22.30
2023-04-12T11:26:06.151Z,22.50
2023-04-12T11:28:36.364Z,22.30
2023-04-12T11:31:05.492Z,22.20
2023-04-12T11:33:35.294Z,21.80
2023-04-12T11:36:07.360Z,21.70
2023-04-12T11:38:37.929Z,22.50
2023-04-12T11:41:08.068Z,22.70
2023-04-12T11:43:38.712Z,22.60
2023-04-12T11:46:07.986Z,23.10
2023-04-12T11:48:38.586Z,23.50
2023-04-12T11:51:22.327Z,24.10
2023-04-12T11:54:00.205Z,24.60
2023-04-12T11:56:31.820Z,24.40
2023-04-12T11:59:00.192Z,25.00
2023-04-12T12:01:29.342Z,25.60
2023-04-12T12:03:58.361Z,24.90
2023-04-12T12:06:29.376Z,24.90
2023-04-12T12:08:58.091Z,24.80
2023-04-12T12:11:27.490Z,24.70
2023-04-12T12:13:57.073Z,25.30
2023-04-12T12:16:27.727Z,25.50
2023-04-12T12:18:57.187Z,25.90
2023-04-12T12:21:27.196Z,26.30
2023-04-12T12:23:58.593Z,25.80
2023-04-12T12:26:28.706Z,26.20
2023-04-12T12:29:00.306Z,26.50
2023-04-12T12:31:33.650Z,26.60
2023-04-12T12:34:04.902Z,26.70
2023-04-12T12:36:36.056Z,26.80
2023-04-12T12:39:10.507Z,26.40
2023-04-12T12:41:40.118Z,26.60
2023-04-12T12:44:09.080Z,26.80
2023-04-12T12:46:52.090Z,26.80
2023-04-12T12:49:22.464Z,26.90
2023-04-12T12:51:52.156Z,27.00
2023-04-12T12:54:39.357Z,26.70
2023-04-12T12:57:09.276Z,26.10
2023-04-12T12:59:37.583Z,24.90
2023-04-12T13:02:07.454Z,24.80
2023-04-12T13:04:36.385Z,24.80
2023-04-12T13:07:05.188Z,24.10
2023-04-12T13:09:34.922Z,24.60
2023-04-12T13:12:04.166Z,24.80
2023-04-12T13:14:32.485Z,25.50
2023-04-12T13:17:00.750Z,25.80
2023-04-12T13:19:29.065Z,25.60
2023-04-12T13:21:57.611Z,25.40
2023-04-12T13:24:26.083Z,25.50
2023-04-12T13:26:55.758Z,25.90
2023-04-12T13:29:24.163Z,26.50
2023-04-12T13:31:52.527Z,26.80
2023-04-12T13:34:20.939Z,27.00
2023-04-12T13:36:50.770Z,26.40
2023-04-12T13:39:19.249Z,26.70
2023-04-12T13:41:47.654Z,26.50
2023-04-12T13:44:17.459Z,26.80
2023-04-12T13:46:45.850Z,26.90
2023-04-12T13:49:16.919Z,26.80
2023-04-12T13:51:45.589Z,27.00
2023-04-12T13:54:15.533Z,27.20
2023-04-12T13:56:47.033Z,26.80
2023-04-12T13:59:15.459Z,27.00
2023-04-12T14:01:45.319Z,26.40
2023-04-12T14:04:13.832Z,26.40
2023-04-12T14:06:42.763Z,26.00
2023-04-12T14:09:11.130Z,26.30
2023-04-12T14:11:57.971Z,26.80
2023-04-12T14:14:27.494Z,26.80
2023-04-12T14:16:57.877Z,26.80
2023-04-12T14:19:26.540Z,26.60
2023-04-12T14:21:58.106Z,26.30
2023-04-12T14:24:26.666Z,27.00
2023-04-12T14:26:57.531Z,27.10
2023-04-12T14:29:27.171Z,27.20
2023-04-12T14:31:56.952Z,27.30
2023-04-12T14:34:25.282Z,27.40
2023-04-12T14:36:56.392Z,27.30
2023-04-12T14:39:26.090Z,27.30
2023-04-12T14:41:54.596Z,27.40
2023-04-12T14:44:25.992Z,27.30
2023-04-12T14:46:59.203Z,27.30
2023-04-12T14:49:28.529Z,27.40
2023-04-12T14:51:59.627Z,27.40
2023-04-12T14:54:28.029Z,27.50
2023-04-12T14:56:56.812Z,27.60
2023-04-12T14:59:27.100Z,27.60
2023-04-12T15:01:59.989Z,26.60
2023-04-12T15:04:28.487Z,27.30
2023-04-12T15:06:57.039Z,27.40
2023-04-12T15:09:26.218Z,27.40
2023-04-12T15:12:03.416Z,27.40
2023-04-12T15:14:31.982Z,27.40
2023-04-12T15:17:01.708Z,27.20
2023-04-12T15:19:32.430Z,27.00
2023-04-12T15:22:00.741Z,27.00
2023-04-12T15:24:30.862Z,27.00
2023-04-12T15:26:59.150Z,27.20
2023-04-12T15:29:27.838Z,27.00
2023-04-12T15:31:57.021Z,26.60
2023-04-12T15:34:28.502Z,27.10
2023-04-12T15:36:56.875Z,27.30
2023-04-12T15:39:25.532Z,27.20
2023-04-12T15:41:56.970Z,27.10
2023-04-12T15:44:31.556Z,26.80
2023-04-12T15:47:10.289Z,26.60
2023-04-12T15:49:42.101Z,26.50
2023-04-12T15:52:10.518Z,26.50
2023-04-12T15:54:43.637Z,26.30
2023-04-12T15:57:12.190Z,26.30
2023-04-12T15:59:41.966Z,26.40
2023-04-12T16:02:10.773Z,26.60
2023-04-12T16:04:41.879Z,26.90
2023-04-12T16:07:10.629Z,27.30
2023-04-12T16:09:40.771Z,27.90
2023-04-12T16:12:10.042Z,28.20
2023-04-12T16:14:39.328Z,28.60
2023-04-12T16:17:08.549Z,28.70
2023-04-12T16:19:36.878Z,28.60
2023-04-12T16:22:07.599Z,28.60
2023-04-12T16:24:35.986Z,28.70
2023-04-12T16:27:04.434Z,28.30
2023-04-12T16:29:35.496Z,28.50
2023-04-12T16:32:08.043Z,28.50
2023-04-12T16:34:36.592Z,28.50
2023-04-12T16:37:06.327Z,28.40
2023-04-12T16:39:36.785Z,28.10
2023-04-12T16:42:07.799Z,28.20
2023-04-12T16:44:37.909Z,28.10
2023-04-12T16:47:07.192Z,27.90
2023-04-12T16:49:35.732Z,27.80
2023-04-12T16:52:09.746Z,27.70
2023-04-12T16:54:38.119Z,27.40
2023-04-12T16:57:06.849Z,27.00
2023-04-12T16:59:35.212Z,26.60
2023-04-12T17:02:05.362Z,26.10
2023-04-12T17:04:33.788Z,26.00
2023-04-12T17:07:02.872Z,25.80
2023-04-12T17:09:32.572Z,25.70
2023-04-12T17:12:01.485Z,25.70
2023-04-12T17:14:30.023Z,25.60
2023-04-12T17:16:58.463Z,25.60
2023-04-12T17:19:27.108Z,25.50
2023-04-12T17:21:55.669Z,25.40
2023-04-12T17:24:25.299Z,25.40
2023-04-12T17:26:54.981Z,25.30
2023-04-12T17:29:23.439Z,25.20
2023-04-12T17:31:54.263Z,25.20
2023-04-12T17:34:23.759Z,25.20
2023-04-12T17:36:55.215Z,25.10
2023-04-12T17:39:23.755Z,25.10
2023-04-12T17:41:52.069Z,25.10
2023-04-12T17:44:21.783Z,25.10
2023-04-12T17:46:50.106Z,25.00
2023-04-12T17:49:18.424Z,25.10
2023-04-12T17:51:46.735Z,24.90
2023-04-12T17:54:14.999Z,24.80
2023-04-12T17:56:46.007Z,24.80
2023-04-12T17:59:14.436Z,24.80
2023-04-12T18:01:44.187Z,24.60
2023-04-12T18:04:15.655Z,24.40
2023-04-12T18:06:45.135Z,24.30
2023-04-12T18:09:14.100Z,24.20
2023-04-12T18:11:45.433Z,24.20
2023-04-12T18:14:15.448Z,24.20
2023-04-12T18:16:45.266Z,24.30
2023-04-12T18:19:16.440Z,24.10
2023-04-12T18:21:49.480Z,24.10
2023-04-12T18:24:17.833Z,24.10
2023-04-12T18:26:46.910Z,24.10
2023-04-12T18:29:17.613Z,24.10
2023-04-12T18:31:49.430Z,24.00
2023-04-12T18:34:20.992Z,24.00
2023-04-12T18:36:50.830Z,24.00
2023-04-12T18:39:22.143Z,24.00
2023-04-12T18:41:54.059Z,24.00
2023-04-12T18:44:25.771Z,23.90
2023-04-12T18:47:00.053Z,23.70
2023-04-12T18:49:29.060Z,23.40
2023-04-12T18:51:59.091Z,23.00
2023-04-12T18:54:28.931Z,22.80
2023-04-12T18:57:01.123Z,22.50
2023-04-12T18:59:29.472Z,22.50
2023-04-12T19:02:02.679Z,22.20
2023-04-12T19:04:31.413Z,21.80
2023-04-12T19:07:00.079Z,22.00
2023-04-12T19:09:29.060Z,22.00
2023-04-12T19:11:57.505Z,21.40
2023-04-12T19:14:28.088Z,21.50
2023-04-12T19:16:57.091Z,21.50
2023-04-12T19:19:26.774Z,21.40
2023-04-12T19:21:58.133Z,21.00
2023-04-12T19:24:28.656Z,21.00
2023-04-12T19:26:57.714Z,20.60
2023-04-12T19:29:27.851Z,20.70
2023-04-12T19:31:56.252Z,20.80
2023-04-12T19:34:36.734Z,20.90
2023-04-12T19:37:05.876Z,20.90
2023-04-12T19:39:40.040Z,20.60
2023-04-12T19:42:10.935Z,20.60
2023-04-12T19:44:40.696Z,20.60
2023-04-12T19:47:08.885Z,20.30
2023-04-12T19:49:38.501Z,20.20
2023-04-12T19:52:07.743Z,20.20
2023-04-12T19:54:38.441Z,20.00
2023-04-12T19:57:06.963Z,20.00
2023-04-12T19:59:36.686Z,20.00
2023-04-12T20:02:05.142Z,20.40
2023-04-12T20:04:34.289Z,20.00
2023-04-12T20:07:11.341Z,20.40
2023-04-12T20:09:39.979Z,20.30
2023-04-12T20:12:08.894Z,20.30
2023-04-12T20:14:38.405Z,20.20
2023-04-12T20:17:06.978Z,20.40
2023-04-12T20:19:35.184Z,20.00
2023-04-12T20:22:06.752Z,20.30
2023-04-12T20:24:38.631Z,20.30
2023-04-12T20:27:07.462Z,20.20
2023-04-12T20:29:36.161Z,20.20
2023-04-12T20:32:05.062Z,20.10
2023-04-12T20:34:35.062Z,20.50
2023-04-12T20:37:07.133Z,20.20
2023-04-12T20:39:35.362Z,20.20
2023-04-12T20:42:06.624Z,20.10
2023-04-12T20:44:35.926Z,20.30
2023-04-12T20:47:04.242Z,20.20
2023-04-12T20:49:33.161Z,20.00
2023-04-12T20:52:02.093Z,19.80
2023-04-12T20:54:33.198Z,20.10
2023-04-12T20:57:04.072Z,20.20
2023-04-12T20:59:33.368Z,20.20
2023-04-12T21:02:01.646Z,20.20
2023-04-12T21:04:30.437Z,20.10
2023-04-12T21:06:58.741Z,20.00
2023-04-12T21:09:26.949Z,20.00
2023-04-12T21:11:57.831Z,19.50
2023-04-12T21:14:29.052Z,19.70
2023-04-12T21:16:57.254Z,19.70
2023-04-12T21:19:25.409Z,19.60
2023-04-12T21:21:53.525Z,19.70
2023-04-12T21:24:22.022Z,19.50
2023-04-12T21:26:57.316Z,19.70
2023-04-12T21:29:25.545Z,19.50
2023-04-12T21:31:53.735Z,19.40
2023-04-12T21:34:22.306Z,19.10
2023-04-12T21:36:50.884Z,18.90
2023-04-12T21:39:19.038Z,19.20
2023-04-12T21:41:47.190Z,19.10
2023-04-12T21:44:16.896Z,19.20
2023-04-12T21:46:45.083Z,19.30
2023-04-12T21:49:13.227Z,19.50
2023-04-12T21:51:41.604Z,19.60
2023-04-12T21:54:14.329Z,19.10
2023-04-12T21:56:42.558Z,19.20
2023-04-12T21:59:10.828Z,19.10
2023-04-12T22:01:41.595Z,18.90
2023-04-12T22:04:09.894Z,19.20
2023-04-12T22:06:38.146Z,19.30
2023-04-12T22:09:06.366Z,19.50
2023-04-12T22:11:34.540Z,19.40
2023-04-12T22:14:02.945Z,19.50
2023-04-12T22:16:32.786Z,19.60
2023-04-12T22:19:02.465Z,19.60
2023-04-12T22:21:30.958Z,19.40
2023-04-12T22:23:59.754Z,18.90
2023-04-12T22:26:28.084Z,19.00
2023-04-12T22:28:56.263Z,18.90
2023-04-12T22:31:26.016Z,19.00
2023-04-12T22:33:56.694Z,19.20
2023-04-12T22:36:29.351Z,18.80
2023-04-12T22:38:57.989Z,18.90
2023-04-12T22:41:28.266Z,18.90
2023-04-12T22:44:02.886Z,19.30
2023-04-12T22:46:32.424Z,18.80
2023-04-12T22:49:01.627Z,18.30
2023-04-12T22:51:32.132Z,18.10
2023-04-12T22:54:02.533Z,18.30
2023-04-12T22:56:30.747Z,18.80
2023-04-12T22:58:58.936Z,18.80
2023-04-12T23:01:29.311Z,18.60
2023-04-12T23:04:00.521Z,18.40
2023-04-12T23:06:31.378Z,18.80
2023-04-12T23:09:02.310Z,18.80
2023-04-12T23:11:30.522Z,19.20
2023-04-12T23:13:59.462Z,19.00
2023-04-12T23:16:28.390Z,18.30
2023-04-12T23:18:57.554Z,18.50
2023-04-12T23:21:25.825Z,19.00
2023-04-12T23:23:56.968Z,19.40
2023-04-12T23:26:25.630Z,18.70
2023-04-12T23:28:56.388Z,19.10
2023-04-12T23:31:24.668Z,19.30
2023-04-12T23:33:52.867Z,19.40
2023-04-12T23:36:21.928Z,19.60
2023-04-12T23:38:55.336Z,19.30
2023-04-12T23:41:24.868Z,19.40
2023-04-12T23:43:54.085Z,18.90
2023-04-12T23:46:22.418Z,18.70
2023-04-12T23:48:50.819Z,18.80
2023-04-12T23:51:19.027Z,19.10
2023-04-12T23:53:47.591Z,19.50
2023-04-12T23:56:15.830Z,19.30
2023-04-12T23:58:45.601Z,19.30
